sensor_id;sensor_type;location;lat;lon;timestamp;P1;durP1;ratioP1;P2;durP2;ratioP2
16504;SDS011;8365;51.030;4.696;2024-01-11T00:00:50;36.30;;;21.77;;
16504;SDS011;8365;51.030;4.696;2024-01-11T00:03:20;36.27;;;22.67;;
16504;SDS011;8365;51.030;4.696;2024-01-11T00:05:51;38.77;;;23.73;;
16504;SDS011;8365;51.030;4.696;2024-01-11T00:08:21;33.97;;;22.17;;
16504;SDS011;8365;51.030;4.696;2024-01-11T00:10:52;42.03;;;23.30;;
16504;SDS011;8365;51.030;4.696;2024-01-11T00:13:25;37.67;;;21.93;;
16504;SDS011;8365;51.030;4.696;2024-01-11T00:15:55;36.33;;;21.63;;
16504;SDS011;8365;51.030;4.696;2024-01-11T00:18:26;39.03;;;21.97;;
16504;SDS011;8365;51.030;4.696;2024-01-11T00:20:56;36.67;;;20.73;;
16504;SDS011;8365;51.030;4.696;2024-01-11T00:23:27;34.43;;;21.27;;
16504;SDS011;8365;51.030;4.696;2024-01-11T00:25:57;32.13;;;21.57;;
16504;SDS011;8365;51.030;4.696;2024-01-11T00:28:29;37.43;;;22.90;;
16504;SDS011;8365;51.030;4.696;2024-01-11T00:30:59;33.80;;;21.10;;
16504;SDS011;8365;51.030;4.696;2024-01-11T00:33:30;30.90;;;19.93;;
16504;SDS011;8365;51.030;4.696;2024-01-11T00:36:03;35.07;;;20.70;;
16504;SDS011;8365;51.030;4.696;2024-01-11T00:38:34;34.07;;;20.60;;
16504;SDS011;8365;51.030;4.696;2024-01-11T00:41:04;34.40;;;21.30;;
16504;SDS011;8365;51.030;4.696;2024-01-11T00:43:35;35.87;;;21.23;;
16504;SDS011;8365;51.030;4.696;2024-01-11T00:46:05;37.10;;;21.80;;
16504;SDS011;8365;51.030;4.696;2024-01-11T00:48:36;31.47;;;21.27;;
16504;SDS011;8365;51.030;4.696;2024-01-11T00:51:06;38.30;;;22.80;;
16504;SDS011;8365;51.030;4.696;2024-01-11T00:53:37;37.70;;;21.93;;
16504;SDS011;8365;51.030;4.696;2024-01-11T00:56:17;32.60;;;20.30;;
16504;SDS011;8365;51.030;4.696;2024-01-11T00:58:47;37.20;;;21.73;;
16504;SDS011;8365;51.030;4.696;2024-01-11T01:01:18;38.23;;;21.50;;
16504;SDS011;8365;51.030;4.696;2024-01-11T01:03:48;37.87;;;22.20;;
16504;SDS011;8365;51.030;4.696;2024-01-11T01:06:21;34.93;;;21.63;;
16504;SDS011;8365;51.030;4.696;2024-01-11T01:08:54;34.67;;;20.27;;
16504;SDS011;8365;51.030;4.696;2024-01-11T01:11:27;36.10;;;21.73;;
16504;SDS011;8365;51.030;4.696;2024-01-11T01:13:58;36.40;;;21.60;;
16504;SDS011;8365;51.030;4.696;2024-01-11T01:16:28;35.63;;;21.77;;
16504;SDS011;8365;51.030;4.696;2024-01-11T01:18:59;34.17;;;21.37;;
16504;SDS011;8365;51.030;4.696;2024-01-11T01:21:29;33.27;;;20.97;;
16504;SDS011;8365;51.030;4.696;2024-01-11T01:24:00;31.97;;;20.83;;
16504;SDS011;8365;51.030;4.696;2024-01-11T01:26:32;34.80;;;21.13;;
16504;SDS011;8365;51.030;4.696;2024-01-11T01:29:03;40.33;;;20.83;;
16504;SDS011;8365;51.030;4.696;2024-01-11T01:31:33;31.47;;;20.33;;
16504;SDS011;8365;51.030;4.696;2024-01-11T01:34:07;35.27;;;21.60;;
16504;SDS011;8365;51.030;4.696;2024-01-11T01:36:38;36.10;;;21.87;;
16504;SDS011;8365;51.030;4.696;2024-01-11T01:39:08;35.20;;;21.73;;
16504;SDS011;8365;51.030;4.696;2024-01-11T01:41:38;36.50;;;20.90;;
16504;SDS011;8365;51.030;4.696;2024-01-11T01:44:09;37.03;;;22.30;;
16504;SDS011;8365;51.030;4.696;2024-01-11T01:46:39;35.33;;;22.17;;
16504;SDS011;8365;51.030;4.696;2024-01-11T01:49:10;31.27;;;20.07;;
16504;SDS011;8365;51.030;4.696;2024-01-11T01:51:42;36.23;;;21.63;;
16504;SDS011;8365;51.030;4.696;2024-01-11T01:54:12;35.17;;;22.50;;
16504;SDS011;8365;51.030;4.696;2024-01-11T01:56:43;35.30;;;21.73;;
16504;SDS011;8365;51.030;4.696;2024-01-11T01:59:13;36.27;;;22.37;;
16504;SDS011;8365;51.030;4.696;2024-01-11T02:01:45;35.57;;;21.87;;
16504;SDS011;8365;51.030;4.696;2024-01-11T02:04:16;36.33;;;21.43;;
16504;SDS011;8365;51.030;4.696;2024-01-11T02:06:46;37.67;;;21.63;;
16504;SDS011;8365;51.030;4.696;2024-01-11T02:09:17;34.03;;;21.03;;
16504;SDS011;8365;51.030;4.696;2024-01-11T02:11:48;37.73;;;21.67;;
16504;SDS011;8365;51.030;4.696;2024-01-11T02:14:19;33.40;;;21.27;;
16504;SDS011;8365;51.030;4.696;2024-01-11T02:16:49;36.33;;;22.07;;
16504;SDS011;8365;51.030;4.696;2024-01-11T02:19:19;39.13;;;22.37;;
16504;SDS011;8365;51.030;4.696;2024-01-11T02:21:51;35.07;;;21.67;;
16504;SDS011;8365;51.030;4.696;2024-01-11T02:24:24;34.30;;;21.03;;
16504;SDS011;8365;51.030;4.696;2024-01-11T02:26:58;35.83;;;21.60;;
16504;SDS011;8365;51.030;4.696;2024-01-11T02:29:31;35.10;;;22.43;;
16504;SDS011;8365;51.030;4.696;2024-01-11T02:32:02;41.70;;;22.83;;
16504;SDS011;8365;51.030;4.696;2024-01-11T02:34:33;34.10;;;20.80;;
16504;SDS011;8365;51.030;4.696;2024-01-11T02:37:05;35.57;;;20.50;;
16504;SDS011;8365;51.030;4.696;2024-01-11T02:39:35;37.93;;;22.73;;
16504;SDS011;8365;51.030;4.696;2024-01-11T02:42:07;39.03;;;22.67;;
16504;SDS011;8365;51.030;4.696;2024-01-11T02:44:37;32.57;;;20.93;;
16504;SDS011;8365;51.030;4.696;2024-01-11T02:47:10;39.00;;;21.23;;
16504;SDS011;8365;51.030;4.696;2024-01-11T02:49:40;39.00;;;21.43;;
16504;SDS011;8365;51.030;4.696;2024-01-11T02:52:11;36.57;;;22.00;;
16504;SDS011;8365;51.030;4.696;2024-01-11T02:54:41;35.03;;;20.83;;
16504;SDS011;8365;51.030;4.696;2024-01-11T02:57:12;37.00;;;21.47;;
16504;SDS011;8365;51.030;4.696;2024-01-11T02:59:42;36.13;;;21.53;;
16504;SDS011;8365;51.030;4.696;2024-01-11T03:02:13;37.77;;;22.27;;
16504;SDS011;8365;51.030;4.696;2024-01-11T03:04:44;32.20;;;20.73;;
16504;SDS011;8365;51.030;4.696;2024-01-11T03:07:14;34.97;;;20.73;;
16504;SDS011;8365;51.030;4.696;2024-01-11T03:09:45;37.10;;;22.07;;
16504;SDS011;8365;51.030;4.696;2024-01-11T03:12:15;37.10;;;22.57;;
16504;SDS011;8365;51.030;4.696;2024-01-11T03:14:45;33.33;;;21.20;;
16504;SDS011;8365;51.030;4.696;2024-01-11T03:17:16;36.80;;;21.57;;
16504;SDS011;8365;51.030;4.696;2024-01-11T03:19:47;43.20;;;22.03;;
16504;SDS011;8365;51.030;4.696;2024-01-11T03:22:17;38.13;;;22.17;;
16504;SDS011;8365;51.030;4.696;2024-01-11T03:24:48;38.20;;;21.27;;
16504;SDS011;8365;51.030;4.696;2024-01-11T03:27:18;35.13;;;21.23;;
16504;SDS011;8365;51.030;4.696;2024-01-11T03:29:49;35.43;;;22.53;;
16504;SDS011;8365;51.030;4.696;2024-01-11T03:32:20;33.27;;;21.03;;
16504;SDS011;8365;51.030;4.696;2024-01-11T03:34:50;35.53;;;22.83;;
16504;SDS011;8365;51.030;4.696;2024-01-11T03:37:20;34.23;;;21.83;;
16504;SDS011;8365;51.030;4.696;2024-01-11T03:39:51;34.90;;;22.27;;
16504;SDS011;8365;51.030;4.696;2024-01-11T03:42:21;35.57;;;21.97;;
16504;SDS011;8365;51.030;4.696;2024-01-11T03:44:52;33.43;;;21.47;;
16504;SDS011;8365;51.030;4.696;2024-01-11T03:47:23;35.10;;;21.83;;
16504;SDS011;8365;51.030;4.696;2024-01-11T03:49:53;34.30;;;22.90;;
16504;SDS011;8365;51.030;4.696;2024-01-11T03:52:24;37.80;;;22.70;;
16504;SDS011;8365;51.030;4.696;2024-01-11T03:54:54;36.93;;;22.37;;
16504;SDS011;8365;51.030;4.696;2024-01-11T03:57:25;41.77;;;22.40;;
16504;SDS011;8365;51.030;4.696;2024-01-11T03:59:55;39.50;;;23.50;;
16504;SDS011;8365;51.030;4.696;2024-01-11T04:02:26;38.37;;;22.00;;
16504;SDS011;8365;51.030;4.696;2024-01-11T04:04:56;44.07;;;23.27;;
16504;SDS011;8365;51.030;4.696;2024-01-11T04:07:29;37.23;;;22.13;;
16504;SDS011;8365;51.030;4.696;2024-01-11T04:10:02;36.40;;;22.37;;
16504;SDS011;8365;51.030;4.696;2024-01-11T04:12:32;37.07;;;21.63;;
16504;SDS011;8365;51.030;4.696;2024-01-11T04:15:03;38.27;;;22.20;;
16504;SDS011;8365;51.030;4.696;2024-01-11T04:17:34;37.00;;;21.93;;
16504;SDS011;8365;51.030;4.696;2024-01-11T04:20:05;37.10;;;22.30;;
16504;SDS011;8365;51.030;4.696;2024-01-11T04:22:36;40.90;;;22.83;;
16504;SDS011;8365;51.030;4.696;2024-01-11T04:25:07;42.03;;;23.20;;
16504;SDS011;8365;51.030;4.696;2024-01-11T04:27:38;35.80;;;22.90;;
16504;SDS011;8365;51.030;4.696;2024-01-11T04:30:08;36.63;;;22.60;;
16504;SDS011;8365;51.030;4.696;2024-01-11T04:32:39;36.97;;;23.00;;
16504;SDS011;8365;51.030;4.696;2024-01-11T04:35:09;45.53;;;24.13;;
16504;SDS011;8365;51.030;4.696;2024-01-11T04:37:40;42.93;;;23.77;;
16504;SDS011;8365;51.030;4.696;2024-01-11T04:40:10;44.00;;;23.43;;
16504;SDS011;8365;51.030;4.696;2024-01-11T04:42:41;39.63;;;24.37;;
16504;SDS011;8365;51.030;4.696;2024-01-11T04:45:11;41.83;;;24.43;;
16504;SDS011;8365;51.030;4.696;2024-01-11T04:47:42;40.70;;;23.00;;
16504;SDS011;8365;51.030;4.696;2024-01-11T04:50:12;43.20;;;24.10;;
16504;SDS011;8365;51.030;4.696;2024-01-11T04:52:43;41.60;;;23.73;;
16504;SDS011;8365;51.030;4.696;2024-01-11T04:55:13;36.57;;;22.70;;
16504;SDS011;8365;51.030;4.696;2024-01-11T04:57:44;40.60;;;24.80;;
16504;SDS011;8365;51.030;4.696;2024-01-11T05:00:14;39.23;;;24.87;;
16504;SDS011;8365;51.030;4.696;2024-01-11T05:02:45;39.57;;;24.73;;
16504;SDS011;8365;51.030;4.696;2024-01-11T05:05:15;43.57;;;24.20;;
16504;SDS011;8365;51.030;4.696;2024-01-11T05:07:46;42.50;;;26.10;;
16504;SDS011;8365;51.030;4.696;2024-01-11T05:10:16;39.70;;;24.70;;
16504;SDS011;8365;51.030;4.696;2024-01-11T05:12:47;42.20;;;25.03;;
16504;SDS011;8365;51.030;4.696;2024-01-11T05:15:17;41.07;;;24.70;;
16504;SDS011;8365;51.030;4.696;2024-01-11T05:17:50;46.20;;;24.80;;
16504;SDS011;8365;51.030;4.696;2024-01-11T05:20:23;40.33;;;23.83;;
16504;SDS011;8365;51.030;4.696;2024-01-11T05:22:54;41.33;;;24.10;;
16504;SDS011;8365;51.030;4.696;2024-01-11T05:25:24;41.20;;;24.23;;
16504;SDS011;8365;51.030;4.696;2024-01-11T05:27:55;40.87;;;24.50;;
16504;SDS011;8365;51.030;4.696;2024-01-11T05:30:25;39.00;;;24.03;;
16504;SDS011;8365;51.030;4.696;2024-01-11T05:32:56;43.27;;;24.73;;
16504;SDS011;8365;51.030;4.696;2024-01-11T05:35:29;42.30;;;25.47;;
16504;SDS011;8365;51.030;4.696;2024-01-11T05:37:59;46.90;;;24.73;;
16504;SDS011;8365;51.030;4.696;2024-01-11T05:40:30;41.40;;;25.03;;
16504;SDS011;8365;51.030;4.696;2024-01-11T05:43:03;40.43;;;23.80;;
16504;SDS011;8365;51.030;4.696;2024-01-11T05:45:33;43.23;;;25.50;;
16504;SDS011;8365;51.030;4.696;2024-01-11T05:48:04;40.60;;;24.33;;
16504;SDS011;8365;51.030;4.696;2024-01-11T05:50:35;40.77;;;25.13;;
16504;SDS011;8365;51.030;4.696;2024-01-11T05:53:06;46.50;;;26.13;;
16504;SDS011;8365;51.030;4.696;2024-01-11T05:55:37;43.43;;;24.27;;
16504;SDS011;8365;51.030;4.696;2024-01-11T05:58:07;40.67;;;24.63;;
16504;SDS011;8365;51.030;4.696;2024-01-11T06:00:38;44.53;;;25.27;;
16504;SDS011;8365;51.030;4.696;2024-01-11T06:03:08;42.80;;;25.97;;
16504;SDS011;8365;51.030;4.696;2024-01-11T06:05:41;43.87;;;25.53;;
16504;SDS011;8365;51.030;4.696;2024-01-11T06:08:12;42.67;;;25.43;;
16504;SDS011;8365;51.030;4.696;2024-01-11T06:10:44;43.47;;;25.20;;
16504;SDS011;8365;51.030;4.696;2024-01-11T06:13:15;41.07;;;24.27;;
16504;SDS011;8365;51.030;4.696;2024-01-11T06:15:45;43.70;;;24.70;;
16504;SDS011;8365;51.030;4.696;2024-01-11T06:18:16;39.60;;;24.53;;
16504;SDS011;8365;51.030;4.696;2024-01-11T06:20:46;40.13;;;25.20;;
16504;SDS011;8365;51.030;4.696;2024-01-11T06:23:17;41.77;;;24.53;;
16504;SDS011;8365;51.030;4.696;2024-01-11T06:25:49;39.93;;;24.27;;
16504;SDS011;8365;51.030;4.696;2024-01-11T06:28:19;39.60;;;23.53;;
16504;SDS011;8365;51.030;4.696;2024-01-11T06:30:50;37.83;;;24.20;;
16504;SDS011;8365;51.030;4.696;2024-01-11T06:33:20;37.63;;;24.40;;
16504;SDS011;8365;51.030;4.696;2024-01-11T06:35:51;42.93;;;24.67;;
16504;SDS011;8365;51.030;4.696;2024-01-11T06:38:21;40.13;;;24.37;;
16504;SDS011;8365;51.030;4.696;2024-01-11T06:40:52;41.43;;;23.83;;
16504;SDS011;8365;51.030;4.696;2024-01-11T06:43:22;39.80;;;23.77;;
16504;SDS011;8365;51.030;4.696;2024-01-11T06:45:55;42.63;;;24.83;;
16504;SDS011;8365;51.030;4.696;2024-01-11T06:48:25;42.80;;;24.70;;
16504;SDS011;8365;51.030;4.696;2024-01-11T06:50:56;41.80;;;25.03;;
16504;SDS011;8365;51.030;4.696;2024-01-11T06:53:26;42.83;;;26.23;;
16504;SDS011;8365;51.030;4.696;2024-01-11T06:55:57;49.90;;;25.33;;
16504;SDS011;8365;51.030;4.696;2024-01-11T06:58:27;42.80;;;25.40;;
16504;SDS011;8365;51.030;4.696;2024-01-11T07:00:58;43.97;;;26.40;;
16504;SDS011;8365;51.030;4.696;2024-01-11T07:03:31;47.37;;;26.90;;
16504;SDS011;8365;51.030;4.696;2024-01-11T07:06:01;48.13;;;27.87;;
16504;SDS011;8365;51.030;4.696;2024-01-11T07:08:33;46.30;;;26.50;;
16504;SDS011;8365;51.030;4.696;2024-01-11T07:11:03;47.20;;;27.53;;
16504;SDS011;8365;51.030;4.696;2024-01-11T07:13:34;45.47;;;26.20;;
16504;SDS011;8365;51.030;4.696;2024-01-11T07:16:05;47.97;;;28.57;;
16504;SDS011;8365;51.030;4.696;2024-01-11T07:18:35;53.30;;;28.90;;
16504;SDS011;8365;51.030;4.696;2024-01-11T07:21:06;55.97;;;28.80;;
16504;SDS011;8365;51.030;4.696;2024-01-11T07:23:36;49.87;;;29.57;;
16504;SDS011;8365;51.030;4.696;2024-01-11T07:26:07;48.53;;;28.47;;
16504;SDS011;8365;51.030;4.696;2024-01-11T07:28:38;48.60;;;28.13;;
16504;SDS011;8365;51.030;4.696;2024-01-11T07:31:10;45.57;;;27.10;;
16504;SDS011;8365;51.030;4.696;2024-01-11T07:33:40;46.13;;;25.83;;
16504;SDS011;8365;51.030;4.696;2024-01-11T07:36:11;46.03;;;26.93;;
16504;SDS011;8365;51.030;4.696;2024-01-11T07:38:42;50.30;;;28.13;;
16504;SDS011;8365;51.030;4.696;2024-01-11T07:41:12;47.83;;;26.70;;
16504;SDS011;8365;51.030;4.696;2024-01-11T07:43:46;49.07;;;28.97;;
16504;SDS011;8365;51.030;4.696;2024-01-11T07:46:16;47.97;;;27.50;;
16504;SDS011;8365;51.030;4.696;2024-01-11T07:48:47;45.50;;;26.57;;
16504;SDS011;8365;51.030;4.696;2024-01-11T07:51:17;44.87;;;26.20;;
16504;SDS011;8365;51.030;4.696;2024-01-11T07:53:49;55.83;;;26.80;;
16504;SDS011;8365;51.030;4.696;2024-01-11T07:56:20;51.73;;;28.17;;
16504;SDS011;8365;51.030;4.696;2024-01-11T07:58:50;48.10;;;26.40;;
16504;SDS011;8365;51.030;4.696;2024-01-11T08:01:21;44.87;;;26.73;;
16504;SDS011;8365;51.030;4.696;2024-01-11T08:03:51;53.73;;;29.40;;
16504;SDS011;8365;51.030;4.696;2024-01-11T08:06:22;43.93;;;25.27;;
16504;SDS011;8365;51.030;4.696;2024-01-11T08:08:52;52.43;;;29.33;;
16504;SDS011;8365;51.030;4.696;2024-01-11T08:11:23;46.07;;;27.00;;
16504;SDS011;8365;51.030;4.696;2024-01-11T08:13:53;51.40;;;28.60;;
16504;SDS011;8365;51.030;4.696;2024-01-11T08:16:24;51.30;;;29.30;;
16504;SDS011;8365;51.030;4.696;2024-01-11T08:18:55;49.53;;;29.17;;
16504;SDS011;8365;51.030;4.696;2024-01-11T08:21:25;53.83;;;30.60;;
16504;SDS011;8365;51.030;4.696;2024-01-11T08:23:56;49.40;;;30.33;;
16504;SDS011;8365;51.030;4.696;2024-01-11T08:26:27;50.27;;;30.47;;
16504;SDS011;8365;51.030;4.696;2024-01-11T08:28:57;49.17;;;29.50;;
16504;SDS011;8365;51.030;4.696;2024-01-11T08:31:28;48.63;;;29.20;;
16504;SDS011;8365;51.030;4.696;2024-01-11T08:33:59;47.47;;;29.23;;
16504;SDS011;8365;51.030;4.696;2024-01-11T08:36:30;52.70;;;29.60;;
16504;SDS011;8365;51.030;4.696;2024-01-11T08:39:05;50.23;;;30.27;;
16504;SDS011;8365;51.030;4.696;2024-01-11T08:41:36;48.40;;;31.07;;
16504;SDS011;8365;51.030;4.696;2024-01-11T08:44:07;49.57;;;30.23;;
16504;SDS011;8365;51.030;4.696;2024-01-11T08:46:38;55.27;;;32.03;;
16504;SDS011;8365;51.030;4.696;2024-01-11T08:49:08;63.40;;;40.77;;
16504;SDS011;8365;51.030;4.696;2024-01-11T08:51:39;59.30;;;36.90;;
16504;SDS011;8365;51.030;4.696;2024-01-11T08:54:09;50.20;;;31.50;;
16504;SDS011;8365;51.030;4.696;2024-01-11T08:56:44;42.93;;;27.43;;
16504;SDS011;8365;51.030;4.696;2024-01-11T08:59:14;43.57;;;27.67;;
16504;SDS011;8365;51.030;4.696;2024-01-11T09:01:47;44.97;;;27.73;;
16504;SDS011;8365;51.030;4.696;2024-01-11T09:04:18;42.63;;;27.43;;
16504;SDS011;8365;51.030;4.696;2024-01-11T09:06:51;45.93;;;27.67;;
16504;SDS011;8365;51.030;4.696;2024-01-11T09:09:21;42.23;;;25.97;;
16504;SDS011;8365;51.030;4.696;2024-01-11T09:11:51;42.47;;;27.30;;
16504;SDS011;8365;51.030;4.696;2024-01-11T09:14:22;46.63;;;27.37;;
16504;SDS011;8365;51.030;4.696;2024-01-11T09:16:52;46.43;;;28.30;;
16504;SDS011;8365;51.030;4.696;2024-01-11T09:19:23;44.30;;;27.00;;
16504;SDS011;8365;51.030;4.696;2024-01-11T09:21:54;45.03;;;26.43;;
16504;SDS011;8365;51.030;4.696;2024-01-11T09:24:24;42.07;;;26.17;;
16504;SDS011;8365;51.030;4.696;2024-01-11T09:26:55;46.17;;;27.27;;
16504;SDS011;8365;51.030;4.696;2024-01-11T09:29:26;43.17;;;28.27;;
16504;SDS011;8365;51.030;4.696;2024-01-11T09:31:58;44.33;;;27.70;;
16504;SDS011;8365;51.030;4.696;2024-01-11T09:34:29;40.40;;;26.77;;
16504;SDS011;8365;51.030;4.696;2024-01-11T09:37:00;45.20;;;26.23;;
16504;SDS011;8365;51.030;4.696;2024-01-11T09:39:30;40.07;;;25.87;;
16504;SDS011;8365;51.030;4.696;2024-01-11T09:42:06;41.40;;;26.17;;
16504;SDS011;8365;51.030;4.696;2024-01-11T09:44:39;38.40;;;24.97;;
16504;SDS011;8365;51.030;4.696;2024-01-11T09:47:11;41.20;;;24.97;;
16504;SDS011;8365;51.030;4.696;2024-01-11T09:49:46;41.37;;;26.20;;
16504;SDS011;8365;51.030;4.696;2024-01-11T09:52:20;38.23;;;25.30;;
16504;SDS011;8365;51.030;4.696;2024-01-11T09:54:55;38.93;;;26.70;;
16504;SDS011;8365;51.030;4.696;2024-01-11T09:57:29;41.20;;;27.07;;
16504;SDS011;8365;51.030;4.696;2024-01-11T10:00:02;46.53;;;28.20;;
16504;SDS011;8365;51.030;4.696;2024-01-11T10:02:37;41.00;;;27.93;;
16504;SDS011;8365;51.030;4.696;2024-01-11T10:05:08;38.53;;;26.13;;
16504;SDS011;8365;51.030;4.696;2024-01-11T10:07:43;35.17;;;25.83;;
16504;SDS011;8365;51.030;4.696;2024-01-11T10:10:17;37.13;;;25.67;;
16504;SDS011;8365;51.030;4.696;2024-01-11T10:12:47;36.30;;;25.90;;
16504;SDS011;8365;51.030;4.696;2024-01-11T10:15:18;39.90;;;27.13;;
16504;SDS011;8365;51.030;4.696;2024-01-11T10:17:54;39.40;;;26.90;;
16504;SDS011;8365;51.030;4.696;2024-01-11T10:20:25;35.33;;;25.23;;
16504;SDS011;8365;51.030;4.696;2024-01-11T10:22:56;36.70;;;25.73;;
16504;SDS011;8365;51.030;4.696;2024-01-11T10:25:27;36.03;;;26.00;;
16504;SDS011;8365;51.030;4.696;2024-01-11T10:27:58;38.63;;;26.30;;
16504;SDS011;8365;51.030;4.696;2024-01-11T10:30:29;34.87;;;25.17;;
16504;SDS011;8365;51.030;4.696;2024-01-11T10:33:00;35.20;;;24.83;;
16504;SDS011;8365;51.030;4.696;2024-01-11T10:35:30;35.90;;;25.60;;
16504;SDS011;8365;51.030;4.696;2024-01-11T10:38:01;35.07;;;24.57;;
16504;SDS011;8365;51.030;4.696;2024-01-11T10:40:39;34.27;;;26.40;;
16504;SDS011;8365;51.030;4.696;2024-01-11T10:43:11;33.07;;;25.77;;
16504;SDS011;8365;51.030;4.696;2024-01-11T10:45:45;33.73;;;25.47;;
16504;SDS011;8365;51.030;4.696;2024-01-11T10:48:18;34.53;;;25.60;;
16504;SDS011;8365;51.030;4.696;2024-01-11T10:50:54;33.83;;;24.57;;
16504;SDS011;8365;51.030;4.696;2024-01-11T10:56:15;34.33;;;24.60;;
16504;SDS011;8365;51.030;4.696;2024-01-11T10:58:47;31.63;;;24.10;;
16504;SDS011;8365;51.030;4.696;2024-01-11T11:01:18;35.10;;;24.57;;
16504;SDS011;8365;51.030;4.696;2024-01-11T11:03:50;33.93;;;24.33;;
16504;SDS011;8365;51.030;4.696;2024-01-11T11:06:26;32.47;;;24.17;;
16504;SDS011;8365;51.030;4.696;2024-01-11T11:08:58;34.33;;;24.80;;
16504;SDS011;8365;51.030;4.696;2024-01-11T11:11:33;31.27;;;23.80;;
16504;SDS011;8365;51.030;4.696;2024-01-11T11:14:05;30.97;;;23.30;;
16504;SDS011;8365;51.030;4.696;2024-01-11T11:16:36;29.80;;;22.23;;
16504;SDS011;8365;51.030;4.696;2024-01-11T11:19:06;33.07;;;23.53;;
16504;SDS011;8365;51.030;4.696;2024-01-11T11:21:42;29.73;;;22.50;;
16504;SDS011;8365;51.030;4.696;2024-01-11T11:24:15;30.83;;;23.50;;
16504;SDS011;8365;51.030;4.696;2024-01-11T11:26:49;30.20;;;23.40;;
16504;SDS011;8365;51.030;4.696;2024-01-11T11:29:20;29.50;;;23.73;;
16504;SDS011;8365;51.030;4.696;2024-01-11T11:31:50;29.73;;;23.00;;
16504;SDS011;8365;51.030;4.696;2024-01-11T11:34:40;29.60;;;22.83;;
16504;SDS011;8365;51.030;4.696;2024-01-11T11:37:22;30.93;;;23.23;;
16504;SDS011;8365;51.030;4.696;2024-01-11T11:39:53;33.00;;;25.00;;
16504;SDS011;8365;51.030;4.696;2024-01-11T11:42:24;31.27;;;24.83;;
16504;SDS011;8365;51.030;4.696;2024-01-11T11:44:55;27.83;;;23.30;;
16504;SDS011;8365;51.030;4.696;2024-01-11T11:47:34;30.63;;;23.70;;
16504;SDS011;8365;51.030;4.696;2024-01-11T11:50:09;30.10;;;23.67;;
16504;SDS011;8365;51.030;4.696;2024-01-11T11:52:41;31.47;;;23.27;;
16504;SDS011;8365;51.030;4.696;2024-01-11T11:55:17;31.90;;;23.07;;
16504;SDS011;8365;51.030;4.696;2024-01-11T11:57:47;28.03;;;22.87;;
16504;SDS011;8365;51.030;4.696;2024-01-11T12:00:19;27.20;;;22.40;;
16504;SDS011;8365;51.030;4.696;2024-01-11T12:02:50;28.90;;;23.63;;
16504;SDS011;8365;51.030;4.696;2024-01-11T12:05:22;26.70;;;22.27;;
16504;SDS011;8365;51.030;4.696;2024-01-11T12:07:52;28.87;;;21.90;;
16504;SDS011;8365;51.030;4.696;2024-01-11T12:10:24;26.60;;;21.43;;
16504;SDS011;8365;51.030;4.696;2024-01-11T12:12:54;26.47;;;21.83;;
16504;SDS011;8365;51.030;4.696;2024-01-11T12:15:26;26.67;;;21.60;;
16504;SDS011;8365;51.030;4.696;2024-01-11T12:17:57;29.40;;;21.73;;
16504;SDS011;8365;51.030;4.696;2024-01-11T12:20:31;25.50;;;20.80;;
16504;SDS011;8365;51.030;4.696;2024-01-11T12:23:04;26.70;;;21.03;;
16504;SDS011;8365;51.030;4.696;2024-01-11T12:25:36;28.47;;;21.20;;
16504;SDS011;8365;51.030;4.696;2024-01-11T12:28:06;28.40;;;21.13;;
16504;SDS011;8365;51.030;4.696;2024-01-11T12:30:37;25.13;;;20.20;;
16504;SDS011;8365;51.030;4.696;2024-01-11T12:33:08;23.90;;;19.20;;
16504;SDS011;8365;51.030;4.696;2024-01-11T12:35:40;23.90;;;20.53;;
16504;SDS011;8365;51.030;4.696;2024-01-11T12:38:10;26.37;;;20.30;;
16504;SDS011;8365;51.030;4.696;2024-01-11T12:40:41;23.20;;;19.97;;
16504;SDS011;8365;51.030;4.696;2024-01-11T12:43:11;32.20;;;23.40;;
16504;SDS011;8365;51.030;4.696;2024-01-11T12:45:42;27.70;;;20.73;;
16504;SDS011;8365;51.030;4.696;2024-01-11T12:48:13;24.37;;;19.77;;
16504;SDS011;8365;51.030;4.696;2024-01-11T12:50:46;24.20;;;19.57;;
16504;SDS011;8365;51.030;4.696;2024-01-11T12:53:16;27.67;;;19.50;;
16504;SDS011;8365;51.030;4.696;2024-01-11T12:56:03;27.50;;;20.23;;
16504;SDS011;8365;51.030;4.696;2024-01-11T12:58:38;25.73;;;19.63;;
16504;SDS011;8365;51.030;4.696;2024-01-11T13:01:12;24.53;;;18.97;;
16504;SDS011;8365;51.030;4.696;2024-01-11T13:03:46;26.27;;;20.23;;
16504;SDS011;8365;51.030;4.696;2024-01-11T13:06:17;23.53;;;19.90;;
16504;SDS011;8365;51.030;4.696;2024-01-11T13:08:49;25.77;;;19.97;;
16504;SDS011;8365;51.030;4.696;2024-01-11T13:11:20;24.63;;;20.13;;
16504;SDS011;8365;51.030;4.696;2024-01-11T13:13:51;25.67;;;20.50;;
16504;SDS011;8365;51.030;4.696;2024-01-11T13:16:21;23.80;;;18.97;;
16504;SDS011;8365;51.030;4.696;2024-01-11T13:18:54;20.53;;;17.60;;
16504;SDS011;8365;51.030;4.696;2024-01-11T13:21:25;22.67;;;18.40;;
16504;SDS011;8365;51.030;4.696;2024-01-11T13:23:55;22.60;;;18.27;;
16504;SDS011;8365;51.030;4.696;2024-01-11T13:26:27;22.23;;;18.20;;
16504;SDS011;8365;51.030;4.696;2024-01-11T13:29:00;22.43;;;18.37;;
16504;SDS011;8365;51.030;4.696;2024-01-11T13:31:31;23.73;;;18.47;;
16504;SDS011;8365;51.030;4.696;2024-01-11T13:34:02;23.03;;;18.80;;
16504;SDS011;8365;51.030;4.696;2024-01-11T13:36:35;22.47;;;17.97;;
16504;SDS011;8365;51.030;4.696;2024-01-11T13:39:06;22.83;;;18.10;;
16504;SDS011;8365;51.030;4.696;2024-01-11T13:41:38;21.80;;;18.23;;
16504;SDS011;8365;51.030;4.696;2024-01-11T13:44:12;22.17;;;17.47;;
16504;SDS011;8365;51.030;4.696;2024-01-11T13:46:42;21.60;;;17.33;;
16504;SDS011;8365;51.030;4.696;2024-01-11T13:49:13;19.67;;;17.57;;
16504;SDS011;8365;51.030;4.696;2024-01-11T13:51:44;21.50;;;18.03;;
16504;SDS011;8365;51.030;4.696;2024-01-11T13:54:15;22.87;;;18.07;;
16504;SDS011;8365;51.030;4.696;2024-01-11T13:56:49;23.37;;;19.20;;
16504;SDS011;8365;51.030;4.696;2024-01-11T13:59:22;23.83;;;20.00;;
16504;SDS011;8365;51.030;4.696;2024-01-11T14:01:53;26.47;;;19.17;;
16504;SDS011;8365;51.030;4.696;2024-01-11T14:04:24;21.83;;;18.87;;
16504;SDS011;8365;51.030;4.696;2024-01-11T14:06:54;24.83;;;19.93;;
16504;SDS011;8365;51.030;4.696;2024-01-11T14:09:25;24.93;;;20.40;;
16504;SDS011;8365;51.030;4.696;2024-01-11T14:11:56;23.93;;;19.33;;
16504;SDS011;8365;51.030;4.696;2024-01-11T14:14:26;26.40;;;20.23;;
16504;SDS011;8365;51.030;4.696;2024-01-11T14:16:56;24.67;;;20.33;;
16504;SDS011;8365;51.030;4.696;2024-01-11T14:19:27;24.50;;;20.00;;
16504;SDS011;8365;51.030;4.696;2024-01-11T14:21:58;25.60;;;20.57;;
16504;SDS011;8365;51.030;4.696;2024-01-11T14:24:28;24.17;;;20.03;;
16504;SDS011;8365;51.030;4.696;2024-01-11T14:26:59;26.10;;;21.07;;
16504;SDS011;8365;51.030;4.696;2024-01-11T14:29:29;23.87;;;20.77;;
16504;SDS011;8365;51.030;4.696;2024-01-11T14:32:00;25.27;;;20.77;;
16504;SDS011;8365;51.030;4.696;2024-01-11T14:34:30;23.33;;;19.37;;
16504;SDS011;8365;51.030;4.696;2024-01-11T14:37:01;27.07;;;21.73;;
16504;SDS011;8365;51.030;4.696;2024-01-11T14:39:31;26.50;;;20.77;;
16504;SDS011;8365;51.030;4.696;2024-01-11T14:42:02;25.10;;;20.57;;
16504;SDS011;8365;51.030;4.696;2024-01-11T14:44:32;26.13;;;20.60;;
16504;SDS011;8365;51.030;4.696;2024-01-11T14:47:03;26.73;;;21.53;;
16504;SDS011;8365;51.030;4.696;2024-01-11T14:49:34;26.03;;;21.13;;
16504;SDS011;8365;51.030;4.696;2024-01-11T14:52:04;26.53;;;20.33;;
16504;SDS011;8365;51.030;4.696;2024-01-11T14:54:35;25.60;;;20.60;;
16504;SDS011;8365;51.030;4.696;2024-01-11T14:57:06;27.53;;;21.57;;
16504;SDS011;8365;51.030;4.696;2024-01-11T14:59:36;29.37;;;21.53;;